createdAt,value
2022-09-23T00:00:42.324Z,12.14
2022-09-23T00:03:30.096Z,12.01
2022-09-23T00:06:21.545Z,12.09
2022-09-23T00:09:07.169Z,12.08
2022-09-23T00:11:53.530Z,12.08
2022-09-23T00:14:39.501Z,12.09
2022-09-23T00:17:26.353Z,12.05
2022-09-23T00:20:12.518Z,12.04
2022-09-23T00:22:58.452Z,12.05
2022-09-23T00:25:44.173Z,12.07
2022-09-23T00:28:30.970Z,12.00
2022-09-23T00:31:22.603Z,12.02
2022-09-23T00:34:10.887Z,12.03
2022-09-23T00:36:59.602Z,11.80
2022-09-23T00:39:46.655Z,11.98
2022-09-23T00:42:32.629Z,11.95
2022-09-23T00:45:19.105Z,11.96
2022-09-23T00:48:05.692Z,11.85
2022-09-23T00:50:53.583Z,11.92
2022-09-23T00:53:40.029Z,11.94
2022-09-23T00:56:26.208Z,11.90
2022-09-23T00:59:13.903Z,11.89
2022-09-23T01:02:00.521Z,11.87
2022-09-23T01:04:49.584Z,11.89
2022-09-23T01:07:35.465Z,11.85
2022-09-23T01:10:23.416Z,11.85
2022-09-23T01:13:26.964Z,11.72
2022-09-23T01:16:22.604Z,11.87
2022-09-23T01:19:14.963Z,11.74
2022-09-23T01:22:14.667Z,11.84
2022-09-23T01:25:21.924Z,11.74
2022-09-23T01:28:11.384Z,11.76
2022-09-23T01:31:00.670Z,11.78
2022-09-23T01:33:59.181Z,11.71
2022-09-23T01:37:03.628Z,11.71
2022-09-23T01:40:15.806Z,11.65
2022-09-23T01:43:07.994Z,11.69
2022-09-23T01:45:56.756Z,11.65
2022-09-23T01:48:50.645Z,11.63
2022-09-23T01:51:39.621Z,11.68
2022-09-23T01:54:38.938Z,11.66
2022-09-23T01:57:33.661Z,11.68
2022-09-23T02:00:20.514Z,11.66
2022-09-23T02:03:15.454Z,11.52
2022-09-23T02:06:09.972Z,11.31
2022-09-23T02:09:02.433Z,11.28
2022-09-23T02:11:48.569Z,11.33
2022-09-23T02:14:40.777Z,11.40
2022-09-23T02:17:40.108Z,11.23
2022-09-23T02:20:29.964Z,11.40
2022-09-23T02:23:36.871Z,11.12
2022-09-23T02:26:36.574Z,10.91
2022-09-23T02:29:50.462Z,10.98
2022-09-23T02:32:54.743Z,11.01
2022-09-23T02:36:01.226Z,11.10
2022-09-23T02:38:53.093Z,10.45
2022-09-23T02:41:54.563Z,10.90
2022-09-23T02:44:40.695Z,10.97
2022-09-23T02:47:29.625Z,10.98
2022-09-23T02:50:15.642Z,10.95
2022-09-23T02:53:01.644Z,10.98
2022-09-23T02:55:47.490Z,11.03
2022-09-23T02:58:34.383Z,11.01
2022-09-23T03:01:37.424Z,11.00
2022-09-23T03:04:38.513Z,11.02
2022-09-23T03:07:36.561Z,11.01
2022-09-23T03:10:38.145Z,10.88
2022-09-23T03:13:28.642Z,10.90
2022-09-23T03:16:39.037Z,10.95
2022-09-23T03:19:50.729Z,10.91
2022-09-23T03:23:03.679Z,10.56
2022-09-23T03:25:52.333Z,10.83
2022-09-23T03:28:41.983Z,10.80
2022-09-23T03:31:29.690Z,10.21
2022-09-23T03:34:20.758Z,10.27
2022-09-23T03:37:15.817Z,9.63
2022-09-23T03:40:29.285Z,10.24
2022-09-23T03:43:15.485Z,10.19
2022-09-23T03:46:01.397Z,10.24
2022-09-23T03:48:47.665Z,10.40
2022-09-23T03:51:33.478Z,10.39
2022-09-23T03:54:19.737Z,10.30
2022-09-23T03:57:05.948Z,10.41
2022-09-23T03:59:52.514Z,10.06
2022-09-23T04:02:39.314Z,10.25
2022-09-23T04:05:25.351Z,10.29
2022-09-23T04:08:11.732Z,10.29
2022-09-23T04:11:01.875Z,10.31
2022-09-23T04:13:48.101Z,10.23
2022-09-23T04:16:34.106Z,10.31
2022-09-23T04:19:20.075Z,10.31
2022-09-23T04:22:08.260Z,10.37
2022-09-23T04:24:54.786Z,10.37
2022-09-23T04:27:40.917Z,10.29
2022-09-23T04:30:26.951Z,10.34
2022-09-23T04:33:13.792Z,10.30
2022-09-23T04:35:59.958Z,10.37
2022-09-23T04:38:46.982Z,10.35
2022-09-23T04:41:33.183Z,10.39
2022-09-23T04:44:20.330Z,10.40
2022-09-23T04:47:06.635Z,10.37
2022-09-23T04:49:54.648Z,10.38
2022-09-23T04:52:43.886Z,10.36
2022-09-23T04:55:30.044Z,10.33
2022-09-23T04:58:16.268Z,10.33
2022-09-23T05:01:13.514Z,10.32
2022-09-23T05:04:05.354Z,10.35
2022-09-23T05:06:51.580Z,10.35
2022-09-23T05:09:37.436Z,10.33
2022-09-23T05:12:23.343Z,10.34
2022-09-23T05:15:09.696Z,10.36
2022-09-23T05:17:59.069Z,10.36
2022-09-23T05:20:45.301Z,10.33
2022-09-23T05:23:31.326Z,10.28
2022-09-23T05:26:17.262Z,10.24
2022-09-23T05:29:03.267Z,10.10
2022-09-23T05:31:49.414Z,10.22
2022-09-23T05:34:35.423Z,10.20
2022-09-23T05:37:21.636Z,10.25
2022-09-23T05:40:08.020Z,10.22
2022-09-23T05:42:54.086Z,10.21
2022-09-23T05:45:39.999Z,10.27
2022-09-23T05:48:25.885Z,10.27
2022-09-23T05:51:15.719Z,10.31
2022-09-23T05:54:04.316Z,10.31
2022-09-23T05:56:50.731Z,10.36
2022-09-23T05:59:38.114Z,10.43
2022-09-23T06:02:24.122Z,10.44
2022-09-23T06:05:10.023Z,10.39
2022-09-23T06:07:56.820Z,10.55
2022-09-23T06:10:45.246Z,10.53
2022-09-23T06:13:31.140Z,10.68
2022-09-23T06:16:17.179Z,10.75
2022-09-23T06:19:06.574Z,10.83
2022-09-23T06:21:53.053Z,10.80
2022-09-23T06:24:39.038Z,10.82
2022-09-23T06:27:24.966Z,10.99
2022-09-23T06:30:12.189Z,11.03
2022-09-23T06:32:58.278Z,10.94
2022-09-23T06:35:53.884Z,11.19
2022-09-23T06:38:48.568Z,11.19
2022-09-23T06:41:34.633Z,11.32
2022-09-23T06:44:20.566Z,11.36
2022-09-23T06:47:06.565Z,11.44
2022-09-23T06:49:52.333Z,11.48
2022-09-23T06:52:38.707Z,11.56
2022-09-23T06:55:27.246Z,11.68
2022-09-23T06:58:13.030Z,11.74
2022-09-23T07:01:03.417Z,11.79
2022-09-23T07:03:49.471Z,11.89
2022-09-23T07:06:35.482Z,11.92
2022-09-23T07:09:21.797Z,12.02
2022-09-23T07:12:08.308Z,11.96
2022-09-23T07:14:54.350Z,12.09
2022-09-23T07:17:43.060Z,12.21
2022-09-23T07:20:29.789Z,12.12
2022-09-23T07:23:17.606Z,12.33
2022-09-23T07:26:04.414Z,12.46
2022-09-23T07:28:57.301Z,12.51
2022-09-23T07:31:43.547Z,12.45
2022-09-23T07:34:29.491Z,12.69
2022-09-23T07:37:16.134Z,12.77
2022-09-23T07:40:02.421Z,12.82
2022-09-23T07:42:48.504Z,12.80
2022-09-23T07:45:34.328Z,12.94
2022-09-23T07:48:20.398Z,13.05
2022-09-23T07:51:14.132Z,13.06
2022-09-23T07:54:00.321Z,13.17
2022-09-23T07:56:46.950Z,13.30
2022-09-23T07:59:32.993Z,13.37
2022-09-23T08:02:18.903Z,13.50
2022-09-23T08:05:05.856Z,12.59
2022-09-23T08:07:52.306Z,13.43
2022-09-23T08:10:38.418Z,13.62
2022-09-23T08:13:24.304Z,13.61
2022-09-23T08:16:10.529Z,13.77
2022-09-23T08:18:56.403Z,13.93
2022-09-23T08:21:42.461Z,13.99
2022-09-23T08:24:30.254Z,14.11
2022-09-23T08:27:16.489Z,14.22
2022-09-23T08:30:02.383Z,14.31
2022-09-23T08:32:50.771Z,14.35
2022-09-23T08:35:37.032Z,14.41
2022-09-23T08:38:23.172Z,14.07
2022-09-23T08:41:28.118Z,14.38
2022-09-23T08:44:17.249Z,14.48
2022-09-23T08:47:16.268Z,14.52
2022-09-23T08:50:16.220Z,14.67
2022-09-23T08:53:24.779Z,14.73
2022-09-23T08:56:16.538Z,14.88
2022-09-23T08:59:29.149Z,14.91
2022-09-23T09:02:20.158Z,15.04
2022-09-23T09:05:09.236Z,15.06
2022-09-23T09:07:57.786Z,15.20
2022-09-23T09:10:47.375Z,15.20
2022-09-23T09:14:07.586Z,15.16
2022-09-23T09:17:00.627Z,15.41
2022-09-23T09:20:04.868Z,15.45
2022-09-23T09:23:00.647Z,15.44
2022-09-23T09:25:55.236Z,15.32
2022-09-23T09:28:52.433Z,15.52
2022-09-23T09:31:38.839Z,15.49
2022-09-23T09:34:36.997Z,15.63
2022-09-23T09:37:31.675Z,15.65
2022-09-23T09:40:17.909Z,15.64
2022-09-23T09:43:04.701Z,15.65
2022-09-23T09:46:15.454Z,15.62
2022-09-23T09:49:11.047Z,15.75
2022-09-23T09:52:22.603Z,15.77
2022-09-23T09:55:14.891Z,15.92
2022-09-23T09:58:05.624Z,16.02
2022-09-23T10:00:52.832Z,15.75
2022-09-23T10:03:43.372Z,15.67
2022-09-23T10:06:32.653Z,16.00
2022-09-23T10:09:22.126Z,16.13
2022-09-23T10:12:18.642Z,16.16
2022-09-23T10:15:05.250Z,16.31
2022-09-23T10:17:51.914Z,16.34
2022-09-23T10:20:39.067Z,16.34
2022-09-23T10:23:27.701Z,16.38
2022-09-23T10:26:17.500Z,16.46
2022-09-23T10:29:31.588Z,16.43
2022-09-23T10:32:23.392Z,16.51
2022-09-23T10:35:09.065Z,16.54
2022-09-23T10:37:56.876Z,16.66
2022-09-23T10:41:02.797Z,16.78
2022-09-23T10:44:16.526Z,16.49
2022-09-23T10:47:14.601Z,16.76
2022-09-23T10:50:15.714Z,16.71
2022-09-23T10:53:08.008Z,16.42
2022-09-23T10:56:03.223Z,16.53
2022-09-23T10:59:27.221Z,16.61
2022-09-23T11:02:51.721Z,16.74
2022-09-23T11:05:59.032Z,16.83
2022-09-23T11:09:13.310Z,16.90
2022-09-23T11:12:31.265Z,16.86
2022-09-23T11:15:31.156Z,17.14
2022-09-23T11:18:48.337Z,17.22
2022-09-23T11:21:53.313Z,17.38
2022-09-23T11:25:23.980Z,17.46
2022-09-23T11:28:39.075Z,17.61
2022-09-23T11:31:47.432Z,17.72
2022-09-23T11:34:52.551Z,17.83
2022-09-23T11:37:43.647Z,17.89
2022-09-23T11:40:35.526Z,17.71
2022-09-23T11:43:28.222Z,17.96
2022-09-23T11:46:27.097Z,17.77
2022-09-23T11:49:29.787Z,18.18
2022-09-23T11:52:22.649Z,18.16
2022-09-23T11:55:19.804Z,17.71
2022-09-23T11:58:21.998Z,18.32
2022-09-23T12:01:14.834Z,18.03
2022-09-23T12:04:21.145Z,18.14
2022-09-23T12:07:13.777Z,18.32
2022-09-23T12:10:08.133Z,18.18
2022-09-23T12:13:32.365Z,18.04
2022-09-23T12:16:36.339Z,18.31
2022-09-23T12:19:39.619Z,18.23
2022-09-23T12:22:26.588Z,18.26
2022-09-23T12:25:21.735Z,18.79
2022-09-23T12:28:14.452Z,18.61
2022-09-23T12:31:00.832Z,18.60
2022-09-23T12:33:51.136Z,19.03
2022-09-23T12:36:39.362Z,19.11
2022-09-23T12:39:37.365Z,19.15
2022-09-23T12:42:27.672Z,19.38
2022-09-23T12:45:35.088Z,19.24
2022-09-23T12:48:20.970Z,19.62
2022-09-23T12:51:16.385Z,19.56
2022-09-23T12:54:05.261Z,19.36
2022-09-23T12:56:54.219Z,19.37
2022-09-23T12:59:54.997Z,19.17
2022-09-23T13:02:47.130Z,19.27
2022-09-23T13:05:51.506Z,19.09
2022-09-23T13:08:40.462Z,19.20
2022-09-23T13:11:29.529Z,19.18
2022-09-23T13:14:21.959Z,19.19
2022-09-23T13:17:24.425Z,19.12
2022-09-23T13:20:19.721Z,19.12
2022-09-23T13:23:20.357Z,19.32
2022-09-23T13:26:13.522Z,19.33
2022-09-23T13:28:59.194Z,19.27
2022-09-23T13:31:45.849Z,19.60
2022-09-23T13:34:34.629Z,19.64
2022-09-23T13:37:28.995Z,19.69
2022-09-23T13:40:27.300Z,19.44
2022-09-23T13:43:23.814Z,19.08
2022-09-23T13:46:13.379Z,19.04
2022-09-23T13:48:59.551Z,19.08
2022-09-23T13:51:45.569Z,19.56
2022-09-23T13:54:35.503Z,20.12
2022-09-23T13:57:27.815Z,20.82
2022-09-23T14:00:19.304Z,21.60
2022-09-23T14:03:26.812Z,22.12
2022-09-23T14:06:15.508Z,22.26
2022-09-23T14:09:02.722Z,22.28
2022-09-23T14:11:50.169Z,22.17
2022-09-23T14:14:37.963Z,22.24
2022-09-23T14:17:24.106Z,22.17
2022-09-23T14:20:17.691Z,22.17
2022-09-23T14:23:06.387Z,22.34
2022-09-23T14:25:53.223Z,22.64
2022-09-23T14:28:39.592Z,22.88
2022-09-23T14:31:26.089Z,23.06
2022-09-23T14:34:49.696Z,22.97
2022-09-23T14:37:57.425Z,22.94
2022-09-23T14:41:17.204Z,23.16
2022-09-23T14:44:04.058Z,23.41
2022-09-23T14:46:56.613Z,23.50
2022-09-23T14:50:07.993Z,23.41
2022-09-23T14:52:53.879Z,23.21
2022-09-23T14:55:40.929Z,23.22
2022-09-23T14:58:30.635Z,23.33
2022-09-23T15:01:34.968Z,23.35
2022-09-23T15:04:24.109Z,23.50
2022-09-23T15:07:20.749Z,23.58
2022-09-23T15:10:30.289Z,23.76
2022-09-23T15:13:22.736Z,23.91
2022-09-23T15:16:08.605Z,24.22
2022-09-23T15:18:56.460Z,24.27
2022-09-23T15:21:44.994Z,24.35
2022-09-23T15:24:35.351Z,24.39
2022-09-23T15:27:32.863Z,24.35
2022-09-23T15:30:19.987Z,24.35
2022-09-23T15:33:06.834Z,24.43
2022-09-23T15:35:52.995Z,24.59
2022-09-23T15:38:43.072Z,24.56
2022-09-23T15:41:33.004Z,24.62
2022-09-23T15:44:21.792Z,24.41
2022-09-23T15:47:14.822Z,24.16
2022-09-23T15:50:00.817Z,23.94
2022-09-23T15:52:46.814Z,23.57
2022-09-23T15:55:33.751Z,23.34
2022-09-23T15:58:20.601Z,23.03
2022-09-23T16:01:07.558Z,22.68
2022-09-23T16:03:54.474Z,22.38
2022-09-23T16:06:43.265Z,21.99
2022-09-23T16:09:31.715Z,21.71
2022-09-23T16:12:17.795Z,21.51
2022-09-23T16:15:04.408Z,21.28
2022-09-23T16:17:50.780Z,21.07
2022-09-23T16:20:39.520Z,20.86
2022-09-23T16:23:38.736Z,20.45
2022-09-23T16:26:29.800Z,20.45
2022-09-23T16:29:15.904Z,20.28
2022-09-23T16:32:02.459Z,20.11
2022-09-23T16:34:48.429Z,19.91
2022-09-23T16:37:35.189Z,19.75
2022-09-23T16:40:23.088Z,19.62
2022-09-23T16:43:09.167Z,19.47
2022-09-23T16:45:55.099Z,19.34
2022-09-23T16:48:41.324Z,19.13
2022-09-23T16:51:30.341Z,19.00
2022-09-23T16:54:17.418Z,18.80
2022-09-23T16:57:03.728Z,18.68
2022-09-23T17:00:08.420Z,18.54
2022-09-23T17:03:12.940Z,18.38
2022-09-23T17:06:00.679Z,18.21
2022-09-23T17:08:48.397Z,18.08
2022-09-23T17:11:34.614Z,17.92
2022-09-23T17:14:21.197Z,17.81
2022-09-23T17:17:07.436Z,17.61
2022-09-23T17:19:53.417Z,17.57
2022-09-23T17:22:39.559Z,17.35
2022-09-23T17:25:26.099Z,17.27
2022-09-23T17:28:12.241Z,17.13
2022-09-23T17:31:03.842Z,16.95
2022-09-23T17:33:50.506Z,16.87
2022-09-23T17:36:36.697Z,16.74
2022-09-23T17:39:23.224Z,16.56
2022-09-23T17:42:10.076Z,16.46
2022-09-23T17:44:56.355Z,16.31
2022-09-23T17:47:42.441Z,16.16
2022-09-23T17:50:29.393Z,15.99
2022-09-23T17:53:16.948Z,15.88
2022-09-23T17:56:06.368Z,15.80
2022-09-23T17:58:53.451Z,15.67
2022-09-23T18:01:39.848Z,15.54
2022-09-23T18:04:26.259Z,15.49
2022-09-23T18:07:12.306Z,15.37
2022-09-23T18:09:58.198Z,15.28
2022-09-23T18:12:44.453Z,15.19
2022-09-23T18:15:30.978Z,15.10
2022-09-23T18:18:17.292Z,15.02
2022-09-23T18:21:04.509Z,14.99
2022-09-23T18:23:50.529Z,14.89
2022-09-23T18:26:36.798Z,14.81
2022-09-23T18:29:22.945Z,14.76
2022-09-23T18:32:13.341Z,14.68
2022-09-23T18:35:00.430Z,14.53
2022-09-23T18:37:46.475Z,14.46
2022-09-23T18:40:34.398Z,14.45
2022-09-23T18:43:25.539Z,14.41
2022-09-23T18:46:20.348Z,14.29
2022-09-23T18:49:24.775Z,14.24
2022-09-23T18:52:10.702Z,14.16
2022-09-23T18:54:56.698Z,14.06
2022-09-23T18:57:42.626Z,13.98
2022-09-23T19:00:28.824Z,13.93
2022-09-23T19:03:16.754Z,13.87
2022-09-23T19:06:04.391Z,13.70
2022-09-23T19:08:54.929Z,13.69
2022-09-23T19:11:41.144Z,13.61
2022-09-23T19:14:27.791Z,13.55
2022-09-23T19:17:13.785Z,13.49
2022-09-23T19:20:00.590Z,13.38
2022-09-23T19:22:47.939Z,13.30
2022-09-23T19:25:36.381Z,13.16
2022-09-23T19:28:23.074Z,13.16
2022-09-23T19:31:15.145Z,13.08
2022-09-23T19:34:10.686Z,13.03
2022-09-23T19:36:57.818Z,13.05
2022-09-23T19:39:44.760Z,12.97
2022-09-23T19:42:30.950Z,12.92
2022-09-23T19:45:17.340Z,12.89
2022-09-23T19:48:06.403Z,12.86
2022-09-23T19:50:52.248Z,12.78
2022-09-23T19:53:38.294Z,12.65
2022-09-23T19:56:24.728Z,12.65
2022-09-23T19:59:13.246Z,12.66
2022-09-23T20:02:02.123Z,12.65
2022-09-23T20:04:47.922Z,12.60
2022-09-23T20:07:34.055Z,12.53
2022-09-23T20:10:20.442Z,12.51
2022-09-23T20:13:07.566Z,12.41
2022-09-23T20:15:53.815Z,12.35
2022-09-23T20:18:40.252Z,12.26
2022-09-23T20:21:27.120Z,12.23
2022-09-23T20:24:13.185Z,12.15
2022-09-23T20:27:11.493Z,12.18
2022-09-23T20:29:58.785Z,12.09
2022-09-23T20:32:45.186Z,12.07
2022-09-23T20:35:33.231Z,12.00
2022-09-23T20:38:19.138Z,11.92
2022-09-23T20:41:05.253Z,11.96
2022-09-23T20:43:54.953Z,11.91
2022-09-23T20:46:47.804Z,11.83
2022-09-23T20:49:35.084Z,11.85
2022-09-23T20:52:21.855Z,11.79
2022-09-23T20:55:08.383Z,11.76
2022-09-23T20:57:54.495Z,11.74
2022-09-23T21:00:41.152Z,11.60
2022-09-23T21:03:29.371Z,11.66
2022-09-23T21:06:17.354Z,11.60
2022-09-23T21:09:04.913Z,11.58
2022-09-23T21:11:50.901Z,11.51
2022-09-23T21:14:36.780Z,11.48
2022-09-23T21:17:23.038Z,11.47
2022-09-23T21:20:09.472Z,11.41
2022-09-23T21:22:57.270Z,11.04
2022-09-23T21:25:44.934Z,11.25
2022-09-23T21:28:32.524Z,11.31
2022-09-23T21:31:45.460Z,11.20
2022-09-23T21:34:32.171Z,11.20
2022-09-23T21:37:18.435Z,11.19
2022-09-23T21:40:23.343Z,11.13
2022-09-23T21:43:09.218Z,11.03
2022-09-23T21:45:58.896Z,11.04
2022-09-23T21:48:45.021Z,11.05
2022-09-23T21:51:34.197Z,11.03
2022-09-23T21:54:20.299Z,10.98
2022-09-23T21:57:06.414Z,10.91
2022-09-23T21:59:54.217Z,10.93
2022-09-23T22:02:40.126Z,10.85
2022-09-23T22:05:25.980Z,10.78
2022-09-23T22:08:12.146Z,10.80
2022-09-23T22:10:58.183Z,10.77
2022-09-23T22:13:44.162Z,10.75
2022-09-23T22:16:30.397Z,10.62
2022-09-23T22:19:16.803Z,10.69
2022-09-23T22:22:07.718Z,10.68
2022-09-23T22:24:54.029Z,10.63
2022-09-23T22:27:59.781Z,10.56
2022-09-23T22:31:04.242Z,10.47
2022-09-23T22:33:50.581Z,10.48
2022-09-23T22:36:36.761Z,10.45
2022-09-23T22:39:23.557Z,10.45
2022-09-23T22:42:10.026Z,10.41
2022-09-23T22:44:55.969Z,10.35
2022-09-23T22:47:45.366Z,10.33
2022-09-23T22:50:31.670Z,10.25
2022-09-23T22:53:17.588Z,10.24
2022-09-23T22:56:03.476Z,10.19
2022-09-23T22:58:49.594Z,10.19
2022-09-23T23:01:36.253Z,10.13
2022-09-23T23:04:22.053Z,10.10
2022-09-23T23:07:08.422Z,10.10
2022-09-23T23:09:54.724Z,10.08
2022-09-23T23:12:41.800Z,10.08
2022-09-23T23:15:28.693Z,10.06
2022-09-23T23:18:14.843Z,10.04
2022-09-23T23:21:18.652Z,9.98
2022-09-23T23:24:05.260Z,9.99
2022-09-23T23:26:52.063Z,9.94
2022-09-23T23:29:37.808Z,9.93
2022-09-23T23:32:23.803Z,9.83
2022-09-23T23:35:09.758Z,9.80
2022-09-23T23:37:56.025Z,9.87
2022-09-23T23:40:42.036Z,9.84
2022-09-23T23:43:28.015Z,9.82
2022-09-23T23:46:14.990Z,9.74
2022-09-23T23:49:00.914Z,9.78
2022-09-23T23:51:47.986Z,9.73
2022-09-23T23:54:33.839Z,9.70
2022-09-23T23:57:19.684Z,9.67
